Time,TemperatureF,DewpointF,PressureIn,WindDirection,WindDirectionDegrees,WindSpeedMPH,WindSpeedGustMPH,Humidity,HourlyPrecipIn,Conditions,Clouds,dailyrainin,SoftwareType,DateUTC
2013-01-16 00:07:00,71.3,66.9,30.06,WSW,245,5.0,10.0,86,0.00,,,0.00,Weather View 32 v70,2013-01-16 05:07:00,
2013-01-16 00:09:00,71.3,66.5,30.06,SW,225,6.0,10.0,85,0.00,,,0.00,Weather View 32 v70,2013-01-16 05:09:00,
2013-01-16 00:19:00,71.0,66.2,30.06,WSW,238,4.0,10.0,85,0.00,,,0.00,Weather View 32 v70,2013-01-16 05:19:00,
2013-01-16 00:29:00,70.8,66.4,30.06,WSW,240,5.0,10.0,86,0.00,,,0.00,Weather View 32 v70,2013-01-16 05:29:00,
2013-01-16 00:39:00,70.7,66.3,30.06,WSW,242,2.0,10.0,86,0.00,,,0.00,Weather View 32 v70,2013-01-16 05:39:00,
2013-01-16 00:49:00,70.6,66.5,30.06,WSW,246,1.0,10.0,87,0.00,,,0.00,Weather View 32 v70,2013-01-16 05:49:00,
2013-01-16 00:59:00,70.5,66.4,30.06,SW,216,6.0,9.0,87,0.00,,,0.00,Weather View 32 v70,2013-01-16 05:59:00,
2013-01-16 01:08:00,70.5,66.4,30.06,SW,216,6.0,9.0,87,0.00,,,0.00,Weather View 32 v70,2013-01-16 06:08:00,
2013-01-16 01:09:00,70.3,66.6,30.06,SW,215,2.0,9.0,88,0.00,,,0.00,Weather View 32 v70,2013-01-16 06:09:00,
2013-01-16 01:19:00,70.2,66.1,30.06,SSW,209,1.0,9.0,87,0.00,,,0.00,Weather View 32 v70,2013-01-16 06:19:00,
2013-01-16 01:29:00,70.0,66.3,30.05,SSW,194,3.0,7.0,88,0.00,,,0.00,Weather View 32 v70,2013-01-16 06:29:00,
2013-01-16 01:39:00,69.7,66.3,30.05,SSW,193,1.0,7.0,89,0.00,,,0.00,Weather View 32 v70,2013-01-16 06:39:00,
2013-01-16 01:49:00,69.4,66.0,30.05,SSW,197,1.0,7.0,89,0.00,,,0.00,Weather View 32 v70,2013-01-16 06:49:00,
2013-01-16 01:59:00,69.2,66.1,30.05,SSW,213,3.0,6.0,90,0.00,,,0.00,Weather View 32 v70,2013-01-16 06:59:00,
2013-01-16 02:09:00,69.2,66.1,30.05,SSW,213,3.0,6.0,90,0.00,,,0.00,Weather View 32 v70,2013-01-16 07:09:00,
2013-01-16 02:19:00,68.8,65.7,30.05,SW,215,3.0,6.0,90,0.00,,,0.00,Weather View 32 v70,2013-01-16 07:19:00,
2013-01-16 02:29:00,68.5,65.4,30.05,SW,231,0.0,6.0,90,0.00,,,0.00,Weather View 32 v70,2013-01-16 07:29:00,
2013-01-16 02:39:00,68.3,65.6,30.05,SW,230,0.0,6.0,91,0.00,,,0.00,Weather View 32 v70,2013-01-16 07:39:00,
2013-01-16 02:49:00,66.3,63.6,30.05,SW,230,0.0,6.0,91,0.00,,,0.00,Weather View 32 v70,2013-01-16 07:49:00,
2013-01-16 02:59:00,65.4,63.3,30.05,SW,230,0.0,6.0,93,0.00,,,0.00,Weather View 32 v70,2013-01-16 07:59:00,
2013-01-16 03:09:00,65.4,63.3,30.05,SW,230,0.0,6.0,93,0.00,,,0.00,Weather View 32 v70,2013-01-16 08:09:00,
2013-01-16 03:19:00,65.1,63.3,30.04,SW,230,0.0,4.0,94,0.00,,,0.00,Weather View 32 v70,2013-01-16 08:19:00,
2013-01-16 03:29:00,65.6,64.1,30.04,SW,230,0.0,2.0,95,0.00,,,0.00,Weather View 32 v70,2013-01-16 08:29:00,
2013-01-16 03:39:00,65.5,63.1,30.04,SW,229,0.0,1.0,92,0.00,,,0.00,Weather View 32 v70,2013-01-16 08:39:00,
2013-01-16 03:49:00,64.2,62.4,30.04,SW,229,0.0,1.0,94,0.00,,,0.00,Weather View 32 v70,2013-01-16 08:49:00,
2013-01-16 03:59:00,64.2,62.7,30.03,SW,229,0.0,1.0,95,0.00,,,0.00,Weather View 32 v70,2013-01-16 08:59:00,
2013-01-16 04:10:00,65.9,64.7,30.03,SSW,201,1.0,2.0,96,0.00,,,0.00,Weather View 32 v70,2013-01-16 09:10:00,
2013-01-16 04:19:00,66.4,64.6,30.03,SSW,194,0.0,2.0,94,0.00,,,0.00,Weather View 32 v70,2013-01-16 09:19:00,
2013-01-16 04:29:00,65.5,63.1,30.03,SSW,194,0.0,2.0,92,0.00,,,0.00,Weather View 32 v70,2013-01-16 09:29:00,
2013-01-16 04:39:00,64.2,62.4,30.03,SSW,194,0.0,2.0,94,0.00,,,0.00,Weather View 32 v70,2013-01-16 09:39:00,
2013-01-16 04:49:00,64.5,63.0,30.03,SSW,194,0.0,2.0,95,0.00,,,0.00,Weather View 32 v70,2013-01-16 09:49:00,
2013-01-16 04:59:00,65.9,64.1,30.03,West,260,0.0,3.0,94,0.00,,,0.00,Weather View 32 v70,2013-01-16 09:59:00,
2013-01-16 05:09:00,66.7,64.6,30.03,WSW,243,2.0,3.0,93,0.00,,,0.00,Weather View 32 v70,2013-01-16 10:09:00,
2013-01-16 05:10:00,66.7,64.6,30.03,WSW,243,2.0,3.0,93,0.00,,,0.00,Weather View 32 v70,2013-01-16 10:10:00,
2013-01-16 05:19:00,67.4,65.0,30.04,WSW,244,3.0,5.0,92,0.00,,,0.00,Weather View 32 v70,2013-01-16 10:19:00,
2013-01-16 05:29:00,67.4,65.0,30.04,WSW,237,1.0,5.0,92,0.00,,,0.00,Weather View 32 v70,2013-01-16 10:29:00,
2013-01-16 05:39:00,67.2,64.8,30.04,WSW,247,0.0,5.0,92,0.00,,,0.00,Weather View 32 v70,2013-01-16 10:39:00,
2013-01-16 05:49:00,66.7,64.3,30.04,WSW,250,0.0,5.0,92,0.00,,,0.00,Weather View 32 v70,2013-01-16 10:49:00,
2013-01-16 05:59:00,66.8,64.7,30.03,WSW,252,0.0,5.0,93,0.00,,,0.00,Weather View 32 v70,2013-01-16 10:59:00,
2013-01-16 06:09:00,67.0,64.9,30.04,WSW,242,2.0,5.0,93,0.00,,,0.00,Weather View 32 v70,2013-01-16 11:09:00,
2013-01-16 06:19:00,66.9,64.5,30.04,WSW,244,3.0,5.0,92,0.00,,,0.00,Weather View 32 v70,2013-01-16 11:19:00,
2013-01-16 06:29:00,66.5,64.1,30.04,WSW,239,3.0,4.0,92,0.00,,,0.00,Weather View 32 v70,2013-01-16 11:29:00,
2013-01-16 06:39:00,66.3,64.2,30.05,WSW,250,2.0,4.0,93,0.00,,,0.00,Weather View 32 v70,2013-01-16 11:39:00,
2013-01-16 06:49:00,66.1,64.0,30.05,SW,227,1.0,4.0,93,0.00,,,0.00,Weather View 32 v70,2013-01-16 11:49:00,
2013-01-16 06:59:00,65.9,63.8,30.05,WSW,241,0.0,4.0,93,0.00,,,0.00,Weather View 32 v70,2013-01-16 11:59:00,
2013-01-16 07:09:00,65.6,63.8,30.05,West,261,1.0,4.0,94,0.00,,,0.00,Weather View 32 v70,2013-01-16 12:09:00,
2013-01-16 07:11:00,65.6,63.8,30.05,West,261,1.0,4.0,94,0.00,,,0.00,Weather View 32 v70,2013-01-16 12:11:00,
2013-01-16 07:19:00,65.7,63.9,30.05,WSW,246,1.0,4.0,94,0.00,,,0.00,Weather View 32 v70,2013-01-16 12:19:00,
2013-01-16 07:29:00,65.8,64.0,30.05,WSW,244,1.0,4.0,94,0.00,,,0.00,Weather View 32 v70,2013-01-16 12:29:00,
2013-01-16 07:39:00,65.7,63.9,30.06,WSW,246,2.0,4.0,94,0.00,,,0.00,Weather View 32 v70,2013-01-16 12:39:00,
2013-01-16 07:49:00,65.6,63.5,30.06,WSW,250,1.0,4.0,93,0.00,,,0.00,Weather View 32 v70,2013-01-16 12:49:00,
2013-01-16 07:59:00,65.8,63.7,30.07,South,190,0.0,4.0,93,0.00,,,0.00,Weather View 32 v70,2013-01-16 12:59:00,
2013-01-16 08:09:00,65.8,64.0,30.07,SSW,213,0.0,4.0,94,0.00,,,0.00,Weather View 32 v70,2013-01-16 13:09:00,
2013-01-16 08:12:00,65.8,64.0,30.07,SSW,213,0.0,4.0,94,0.00,,,0.00,Weather View 32 v70,2013-01-16 13:12:00,
2013-01-16 08:19:00,66.1,64.0,30.08,SSW,212,0.0,4.0,93,0.00,,,0.00,Weather View 32 v70,2013-01-16 13:19:00,
2013-01-16 08:29:00,66.3,64.2,30.08,SSW,210,0.0,4.0,93,0.00,,,0.00,Weather View 32 v70,2013-01-16 13:29:00,
2013-01-16 08:39:00,66.7,64.6,30.08,SSW,210,0.0,3.0,93,0.00,,,0.00,Weather View 32 v70,2013-01-16 13:39:00,
2013-01-16 08:49:00,67.4,65.0,30.08,WSW,242,4.0,6.0,92,0.00,,,0.00,Weather View 32 v70,2013-01-16 13:49:00,
2013-01-16 08:59:00,68.1,65.0,30.08,WSW,257,6.0,7.0,90,0.00,,,0.00,Weather View 32 v70,2013-01-16 13:59:00,
2013-01-16 09:09:00,68.8,65.4,30.09,WSW,247,7.0,11.0,89,0.00,,,0.00,Weather View 32 v70,2013-01-16 14:09:00,
2013-01-16 09:12:00,68.8,65.4,30.09,WSW,247,7.0,11.0,89,0.00,,,0.00,Weather View 32 v70,2013-01-16 14:12:00,
2013-01-16 09:19:00,69.1,65.7,30.09,WSW,242,8.0,11.0,89,0.00,,,0.00,Weather View 32 v70,2013-01-16 14:19:00,
2013-01-16 09:29:00,69.5,65.8,30.09,SW,230,6.0,11.0,88,0.00,,,0.00,Weather View 32 v70,2013-01-16 14:29:00,
2013-01-16 09:39:00,69.7,66.0,30.09,WSW,253,5.0,11.0,88,0.00,,,0.00,Weather View 32 v70,2013-01-16 14:39:00,
2013-01-16 09:49:00,70.1,66.0,30.09,WSW,245,3.0,11.0,87,0.00,,,0.00,Weather View 32 v70,2013-01-16 14:49:00,
2013-01-16 09:59:00,70.4,66.3,30.09,WSW,246,7.0,11.0,87,0.00,,,0.00,Weather View 32 v70,2013-01-16 14:59:00,
2013-01-16 10:09:00,71.0,66.6,30.09,West,259,3.0,11.0,86,0.00,,,0.00,Weather View 32 v70,2013-01-16 15:09:00,
2013-01-16 10:19:00,71.7,66.9,30.09,WSW,248,6.0,11.0,85,0.00,,,0.00,Weather View 32 v70,2013-01-16 15:19:00,
2013-01-16 10:29:00,72.4,67.3,30.09,WSW,258,0.0,11.0,84,0.00,,,0.00,Weather View 32 v70,2013-01-16 15:29:00,
2013-01-16 10:39:00,72.8,67.0,30.09,WSW,246,0.0,11.0,82,0.00,,,0.00,Weather View 32 v70,2013-01-16 15:39:00,
2013-01-16 10:49:00,73.2,67.4,30.08,West,279,0.0,11.0,82,0.00,,,0.00,Weather View 32 v70,2013-01-16 15:49:00,
2013-01-16 10:59:00,73.2,67.4,30.08,WSW,243,0.0,11.0,82,0.00,,,0.00,Weather View 32 v70,2013-01-16 15:59:00,
2013-01-16 11:09:00,73.4,66.8,30.08,WSW,242,1.0,11.0,80,0.00,,,0.00,Weather View 32 v70,2013-01-16 16:09:00,
2013-01-16 11:19:00,73.9,66.9,30.08,NW,326,0.0,9.0,79,0.00,,,0.00,Weather View 32 v70,2013-01-16 16:19:00,
2013-01-16 11:29:00,73.8,65.3,30.07,NNW,348,5.0,9.0,75,0.00,,,0.00,Weather View 32 v70,2013-01-16 16:29:00,
2013-01-16 11:39:00,73.7,66.0,30.06,WSW,239,7.0,9.0,77,0.00,,,0.00,Weather View 32 v70,2013-01-16 16:39:00,
2013-01-16 11:49:00,74.0,65.5,30.06,WSW,244,4.0,9.0,75,0.00,,,0.00,Weather View 32 v70,2013-01-16 16:49:00,
2013-01-16 11:59:00,74.5,65.6,30.06,West,273,0.0,9.0,74,0.00,,,0.00,Weather View 32 v70,2013-01-16 16:59:00,
2013-01-16 12:10:00,74.1,65.2,30.05,WSW,244,7.0,10.0,74,0.00,,,0.00,Weather View 32 v70,2013-01-16 17:10:00,
2013-01-16 12:14:00,74.1,65.2,30.05,WSW,244,7.0,10.0,74,0.00,,,0.00,Weather View 32 v70,2013-01-16 17:14:00,
2013-01-16 12:19:00,74.4,65.5,30.05,WSW,248,5.0,10.0,74,0.00,,,0.00,Weather View 32 v70,2013-01-16 17:19:00,
2013-01-16 12:29:00,75.8,65.3,30.04,NW,318,0.0,10.0,70,0.00,,,0.00,Weather View 32 v70,2013-01-16 17:29:00,
2013-01-16 12:39:00,75.0,65.3,30.04,WSW,251,8.0,10.0,72,0.00,,,0.00,Weather View 32 v70,2013-01-16 17:39:00,
2013-01-16 12:49:00,75.2,65.1,30.03,WSW,247,5.0,12.0,71,0.00,,,0.00,Weather View 32 v70,2013-01-16 17:49:00,
2013-01-16 12:59:00,75.9,65.8,30.03,West,259,6.0,12.0,71,0.00,,,0.00,Weather View 32 v70,2013-01-16 17:59:00,
2013-01-16 13:09:00,75.7,65.2,30.02,SSW,193,1.0,12.0,70,0.00,,,0.00,Weather View 32 v70,2013-01-16 18:09:00,
2013-01-16 13:15:00,75.7,65.2,30.02,SSW,193,1.0,12.0,70,0.00,,,0.00,Weather View 32 v70,2013-01-16 18:15:00,
2013-01-16 13:19:00,76.6,63.9,30.02,WSW,251,3.0,12.0,65,0.00,,,0.00,Weather View 32 v70,2013-01-16 18:19:00,
2013-01-16 13:29:00,76.6,64.8,30.01,WSW,254,7.0,12.0,67,0.00,,,0.00,Weather View 32 v70,2013-01-16 18:29:00,
2013-01-16 13:39:00,77.3,64.1,30.01,WNW,296,0.0,12.0,64,0.00,,,0.00,Weather View 32 v70,2013-01-16 18:39:00,
2013-01-16 13:49:00,77.8,63.7,30.01,WSW,241,11.0,12.0,62,0.00,,,0.00,Weather View 32 v70,2013-01-16 18:49:00,
2013-01-16 13:59:00,78.8,64.6,30.00,West,279,3.0,13.0,62,0.00,,,0.00,Weather View 32 v70,2013-01-16 18:59:00,
2013-01-16 14:09:00,78.7,64.5,30.00,SW,225,6.0,13.0,62,0.00,,,0.00,Weather View 32 v70,2013-01-16 19:09:00,
2013-01-16 14:15:00,78.7,64.5,30.00,SW,225,6.0,13.0,62,0.00,,,0.00,Weather View 32 v70,2013-01-16 19:15:00,
2013-01-16 14:19:00,78.8,64.6,30.00,NNE,12,3.0,13.0,62,0.00,,,0.00,Weather View 32 v70,2013-01-16 19:19:00,
2013-01-16 14:29:00,78.2,64.5,29.99,SSW,200,1.0,13.0,63,0.00,,,0.00,Weather View 32 v70,2013-01-16 19:29:00,
2013-01-16 14:39:00,78.0,63.9,29.99,SSW,196,2.0,13.0,62,0.00,,,0.00,Weather View 32 v70,2013-01-16 19:39:00,
2013-01-16 14:49:00,78.4,64.3,29.99,WSW,247,13.0,14.0,62,0.00,,,0.00,Weather View 32 v70,2013-01-16 19:49:00,
2013-01-16 14:59:00,77.8,64.1,29.98,WSW,240,3.0,14.0,63,0.00,,,0.00,Weather View 32 v70,2013-01-16 19:59:00,
2013-01-16 15:09:00,77.6,63.5,29.99,WNW,298,4.0,14.0,62,0.00,,,0.00,Weather View 32 v70,2013-01-16 20:09:00,
2013-01-16 15:16:00,77.6,63.5,29.99,WNW,298,4.0,14.0,62,0.00,,,0.00,Weather View 32 v70,2013-01-16 20:16:00,
2013-01-16 15:29:00,79.0,62.9,29.98,SW,234,3.0,14.0,58,0.00,,,0.00,Weather View 32 v70,2013-01-16 20:29:00,
2013-01-16 15:39:00,79.3,63.7,29.99,WSW,237,4.0,14.0,59,0.00,,,0.00,Weather View 32 v70,2013-01-16 20:39:00,
2013-01-16 15:49:00,79.5,63.4,29.99,WSW,237,1.0,13.0,58,0.00,,,0.00,Weather View 32 v70,2013-01-16 20:49:00,
2013-01-16 15:59:00,78.8,63.7,29.99,NW,307,0.0,13.0,60,0.00,,,0.00,Weather View 32 v70,2013-01-16 20:59:00,
2013-01-16 16:09:00,78.4,63.3,29.99,WSW,243,6.0,13.0,60,0.00,,,0.00,Weather View 32 v70,2013-01-16 21:09:00,
2013-01-16 16:16:00,78.4,63.3,29.99,WSW,243,6.0,13.0,60,0.00,,,0.00,Weather View 32 v70,2013-01-16 21:16:00,
2013-01-16 16:19:00,78.6,62.5,29.99,WSW,248,7.0,13.0,58,0.00,,,0.00,Weather View 32 v70,2013-01-16 21:19:00,
2013-01-16 16:29:00,78.3,62.7,29.99,West,263,4.0,13.0,59,0.00,,,0.00,Weather View 32 v70,2013-01-16 21:29:00,
2013-01-16 16:39:00,77.9,62.8,29.99,WSW,253,2.0,13.0,60,0.00,,,0.00,Weather View 32 v70,2013-01-16 21:39:00,
2013-01-16 16:49:00,77.6,62.6,29.99,WSW,249,1.0,10.0,60,0.00,,,0.00,Weather View 32 v70,2013-01-16 21:49:00,
2013-01-16 16:59:00,77.7,62.2,29.99,WSW,254,4.0,10.0,59,0.00,,,0.00,Weather View 32 v70,2013-01-16 21:59:00,
2013-01-16 17:09:00,77.2,62.7,29.99,North,0,4.0,10.0,61,0.00,,,0.00,Weather View 32 v70,2013-01-16 22:09:00,
2013-01-16 17:17:00,77.2,62.7,29.99,North,0,4.0,10.0,61,0.00,,,0.00,Weather View 32 v70,2013-01-16 22:17:00,
2013-01-16 17:19:00,77.1,62.1,29.99,WSW,249,4.0,8.0,60,0.00,,,0.00,Weather View 32 v70,2013-01-16 22:19:00,
2013-01-16 17:29:00,76.6,61.6,29.99,West,265,0.0,8.0,60,0.00,,,0.00,Weather View 32 v70,2013-01-16 22:29:00,
2013-01-16 17:39:00,75.4,61.9,30.00,West,265,0.0,7.0,63,0.00,,,0.00,Weather View 32 v70,2013-01-16 22:39:00,
2013-01-16 17:49:00,74.4,62.3,30.00,West,265,0.0,7.0,66,0.00,,,0.00,Weather View 32 v70,2013-01-16 22:49:00,
2013-01-16 17:59:00,72.8,62.4,30.00,West,265,0.0,7.0,70,0.00,,,0.00,Weather View 32 v70,2013-01-16 22:59:00,
2013-01-16 18:09:00,71.5,62.4,30.00,West,265,0.0,6.0,73,0.00,,,0.00,Weather View 32 v70,2013-01-16 23:09:00,
2013-01-16 18:17:00,71.5,62.4,30.00,West,265,0.0,6.0,73,0.00,,,0.00,Weather View 32 v70,2013-01-16 23:17:00,
2013-01-16 18:19:00,70.7,62.7,30.00,West,265,0.0,5.0,76,0.00,,,0.00,Weather View 32 v70,2013-01-16 23:19:00,
2013-01-16 18:29:00,69.9,62.7,30.00,West,265,0.0,1.0,78,0.00,,,0.00,Weather View 32 v70,2013-01-16 23:29:00,
2013-01-16 18:40:00,69.5,63.4,30.00,West,265,0.0,1.0,81,0.00,,,0.00,Weather View 32 v70,2013-01-16 23:40:00,
2013-01-16 18:50:00,69.1,63.7,30.00,West,265,0.0,0.0,83,0.00,,,0.00,Weather View 32 v70,2013-01-16 23:50:00,
2013-01-16 18:59:00,68.6,63.6,30.01,West,265,0.0,0.0,84,0.00,,,0.00,Weather View 32 v70,2013-01-16 23:59:00,
2013-01-16 19:09:00,68.1,63.1,30.01,West,265,0.0,0.0,84,0.00,,,0.00,Weather View 32 v70,2013-01-17 00:09:00,
2013-01-16 19:18:00,68.1,63.1,30.01,West,265,0.0,0.0,84,0.00,,,0.00,Weather View 32 v70,2013-01-17 00:18:00,
2013-01-16 19:29:00,66.6,62.3,30.01,West,265,0.0,0.0,86,0.00,,,0.00,Weather View 32 v70,2013-01-17 00:29:00,
2013-01-16 19:39:00,65.7,61.7,30.01,West,265,0.0,0.0,87,0.00,,,0.00,Weather View 32 v70,2013-01-17 00:39:00,
2013-01-16 19:49:00,64.8,60.5,30.02,NW,316,0.0,0.0,86,0.00,,,0.00,Weather View 32 v70,2013-01-17 00:49:00,
2013-01-16 19:59:00,65.0,61.7,30.02,SSE,153,0.0,0.0,89,0.00,,,0.00,Weather View 32 v70,2013-01-17 00:59:00,
2013-01-16 20:09:00,65.7,62.4,30.02,SSE,153,0.0,0.0,89,0.00,,,0.00,Weather View 32 v70,2013-01-17 01:09:00,
2013-01-16 20:19:00,65.7,62.4,30.02,SSE,153,0.0,0.0,89,0.00,,,0.00,Weather View 32 v70,2013-01-17 01:19:00,
2013-01-16 20:29:00,65.1,61.8,30.02,SSE,153,0.0,0.0,89,0.00,,,0.00,Weather View 32 v70,2013-01-17 01:29:00,
2013-01-16 20:39:00,65.0,61.7,30.02,SSE,153,0.0,0.0,89,0.00,,,0.00,Weather View 32 v70,2013-01-17 01:39:00,
2013-01-16 20:49:00,64.5,60.9,30.03,SSE,153,0.0,0.0,88,0.00,,,0.00,Weather View 32 v70,2013-01-17 01:49:00,
2013-01-16 20:59:00,63.7,60.4,30.03,SSE,153,0.0,0.0,89,0.00,,,0.00,Weather View 32 v70,2013-01-17 01:59:00,
2013-01-16 21:09:00,63.2,60.2,30.03,North,355,0.0,0.0,90,0.00,,,0.00,Weather View 32 v70,2013-01-17 02:09:00,
2013-01-16 21:19:00,63.2,60.2,30.03,North,355,0.0,0.0,90,0.00,,,0.00,Weather View 32 v70,2013-01-17 02:19:00,
2013-01-16 21:29:00,63.2,59.6,30.03,North,351,0.0,0.0,88,0.00,,,0.00,Weather View 32 v70,2013-01-17 02:29:00,
2013-01-16 21:39:00,62.9,59.6,30.03,North,351,0.0,0.0,89,0.00,,,0.00,Weather View 32 v70,2013-01-17 02:39:00,
2013-01-16 21:49:00,62.7,59.4,30.03,North,351,0.0,0.0,89,0.00,,,0.00,Weather View 32 v70,2013-01-17 02:49:00,
2013-01-16 21:59:00,62.1,58.8,30.03,North,351,0.0,0.0,89,0.00,,,0.00,Weather View 32 v70,2013-01-17 02:59:00,
2013-01-16 22:09:00,61.8,58.8,30.03,North,351,0.0,0.0,90,0.00,,,0.00,Weather View 32 v70,2013-01-17 03:09:00,
2013-01-16 22:20:00,61.4,58.4,30.03,North,351,0.0,0.0,90,0.00,,,0.00,Weather View 32 v70,2013-01-17 03:20:00,
2013-01-16 22:29:00,61.1,58.1,30.02,North,351,0.0,0.0,90,0.00,,,0.00,Weather View 32 v70,2013-01-17 03:29:00,
2013-01-16 22:39:00,60.9,58.2,30.02,North,351,0.0,0.0,91,0.00,,,0.00,Weather View 32 v70,2013-01-17 03:39:00,
2013-01-16 22:49:00,61.4,59.0,30.02,North,351,0.0,0.0,92,0.00,,,0.00,Weather View 32 v70,2013-01-17 03:49:00,
2013-01-16 22:59:00,61.4,58.7,30.02,North,351,0.0,0.0,91,0.00,,,0.00,Weather View 32 v70,2013-01-17 03:59:00,
2013-01-16 23:09:00,61.1,59.1,30.02,North,351,0.0,0.0,93,0.00,,,0.00,Weather View 32 v70,2013-01-17 04:09:00,
2013-01-16 23:19:00,62.7,60.9,30.02,NW,308,0.0,0.0,94,0.00,,,0.00,Weather View 32 v70,2013-01-17 04:19:00,
2013-01-16 23:20:00,62.7,60.9,30.02,NW,308,0.0,0.0,94,0.00,,,0.00,Weather View 32 v70,2013-01-17 04:20:00,
2013-01-16 23:29:00,62.9,60.5,30.02,NW,307,0.0,0.0,92,0.00,,,0.00,Weather View 32 v70,2013-01-17 04:29:00,
2013-01-16 23:39:00,62.4,60.0,30.02,NW,307,0.0,0.0,92,0.00,,,0.00,Weather View 32 v70,2013-01-17 04:39:00,
2013-01-16 23:49:00,62.4,60.0,30.02,NW,307,0.0,0.0,92,0.00,,,0.00,Weather View 32 v70,2013-01-17 04:49:00,
2013-01-16 23:59:00,61.3,58.3,30.01,NW,307,0.0,0.0,90,0.00,,,0.00,Weather View 32 v70,2013-01-17 04:59:00,